Clipper 3 — ZMT3984 — position and weather

sailwx.info

Track history (hours):
 
Tides and Currents Weather Stations Pressure Air Temp Water Temp Dewpoint Dewpoint Depression Visibility Wind Speed Wind Dir Waves Ship Positions

Clipper 3

Last reported at 2015-Aug-27 21:06 UTC. Time now 2015-Aug-28 00:17 UTC.
Position S 36°51' E 174°54'.

Length 14 m; draft 1 m.

Type: High speed craft. MMSI: 512000741.

Date/timePositionNaut miles runAvg speedWind from/ knotsBaromVisibWave heightAir tempDewpointWater temp
2015-Aug-27 21:06S 36°51' E 174°54'4 7.1
2015-Aug-27 20:33S 36°50' E 174°49'2 2.1
2015-Aug-27 19:33S 36°50' E 174°46'6 0.5
2015-Aug-27 06:18S 36°51' E 174°54'7 3.8
2015-Aug-27 04:33S 36°51' E 174°46'7 2.9
2015-Aug-27 02:18S 36°51' E 174°54'0 0.1
2015-Aug-27 00:20S 36°51' E 174°54'0 0.0
2015-Aug-26 21:07S 36°51' E 174°54'4 7.0
2015-Aug-26 20:33S 36°50' E 174°49'2 2.4
2015-Aug-26 19:33S 36°50' E 174°46'6 0.5
2015-Aug-26 06:17S 36°51' E 174°54'6 3.7
2015-Aug-26 04:34S 36°51' E 174°46'6 2.8
2015-Aug-26 02:17S 36°51' E 174°54'0 0.0
2015-Aug-26 00:16S 36°51' E 174°54'0 0.1
2015-Aug-25 21:05S 36°51' E 174°54'3 6.3
2015-Aug-25 20:33S 36°50' E 174°49'2 2.4
2015-Aug-25 19:33S 36°50' E 174°46'6 0.4
2015-Aug-25 06:16S 36°51' E 174°54'6 3.6
2015-Aug-25 04:33S 36°51' E 174°46'6 2.8
2015-Aug-25 02:16S 36°51' E 174°54'0 0.0
2015-Aug-25 00:18S 36°51' E 174°54'0 0.0
2015-Aug-24 21:06S 36°51' E 174°54'4 7.2
2015-Aug-24 20:33S 36°50' E 174°49'3 2.5
2015-Aug-24 19:32S 36°51' E 174°46'6 0.5
2015-Aug-24 06:17S 36°51' E 174°54'6 3.7
2015-Aug-24 04:33S 36°51' E 174°46'6 0.9
2015-Aug-23 21:07S 36°51' E 174°54'4 7.1
2015-Aug-23 20:33S 36°50' E 174°49'2 2.3
2015-Aug-23 19:33S 36°50' E 174°46'  
2015-Aug-21 06:18S 36°51' E 174°54'7 3.8
2015-Aug-21 04:33S 36°51' E 174°46'6 0.3
2015-Aug-20 06:15S 36°51' E 174°54'6 3.7
2015-Aug-20 04:33S 36°51' E 174°46'6 2.6
2015-Aug-20 02:15S 36°51' E 174°53'0 0.2
2015-Aug-20 00:15S 36°51' E 174°54'0 0.1
2015-Aug-19 21:05S 36°51' E 174°53'5 3.6
2015-Aug-19 19:33S 36°50' E 174°47'6 0.4
2015-Aug-19 06:16S 36°51' E 174°53'6 3.5
2015-Aug-19 04:34S 36°51' E 174°46'6 2.6
2015-Aug-19 02:15S 36°51' E 174°54'0 0.2
2015-Aug-19 00:18S 36°51' E 174°54'0 0.0
2015-Aug-18 21:08S 36°51' E 174°54'3 5.0
2015-Aug-18 20:33S 36°50' E 174°50'3 3.2
2015-Aug-18 19:33S 36°50' E 174°46'6 0.5
2015-Aug-18 06:17S 36°51' E 174°54'6 3.7
2015-Aug-18 04:33S 36°51' E 174°46'6 2.7
2015-Aug-18 02:16S 36°51' E 174°54'0 0.1
2015-Aug-18 00:18S 36°51' E 174°54'  
Track history (hours):
 
Tides and Currents Weather Stations Pressure Air Temp Water Temp Dewpoint Dewpoint Depression Visibility Wind Speed Wind Dir Waves Ship Positions

Clipper 3

Last reported at 2015-Aug-27 21:06 UTC. Time now 2015-Aug-28 00:17 UTC.
Position S 36°51' E 174°54'.

Length 14 m; draft 1 m.

Type: High speed craft. MMSI: 512000741.

Date/timePositionNaut miles runAvg speedWind from/ knotsBaromVisibWave heightAir tempDewpointWater temp
2015-Aug-27 21:06S 36°51' E 174°54'4 7.1
2015-Aug-27 20:33S 36°50' E 174°49'2 2.1
2015-Aug-27 19:33S 36°50' E 174°46'6 0.5
2015-Aug-27 06:18S 36°51' E 174°54'7 3.8
2015-Aug-27 04:33S 36°51' E 174°46'7 2.9
2015-Aug-27 02:18S 36°51' E 174°54'0 0.1
2015-Aug-27 00:20S 36°51' E 174°54'0 0.0
2015-Aug-26 21:07S 36°51' E 174°54'4 7.0
2015-Aug-26 20:33S 36°50' E 174°49'2 2.4
2015-Aug-26 19:33S 36°50' E 174°46'6 0.5
2015-Aug-26 06:17S 36°51' E 174°54'6 3.7
2015-Aug-26 04:34S 36°51' E 174°46'6 2.8
2015-Aug-26 02:17S 36°51' E 174°54'0 0.0
2015-Aug-26 00:16S 36°51' E 174°54'0 0.1
2015-Aug-25 21:05S 36°51' E 174°54'3 6.3
2015-Aug-25 20:33S 36°50' E 174°49'2 2.4
2015-Aug-25 19:33S 36°50' E 174°46'6 0.4
2015-Aug-25 06:16S 36°51' E 174°54'6 3.6
2015-Aug-25 04:33S 36°51' E 174°46'6 2.8
2015-Aug-25 02:16S 36°51' E 174°54'0 0.0
2015-Aug-25 00:18S 36°51' E 174°54'0 0.0
2015-Aug-24 21:06S 36°51' E 174°54'4 7.2
2015-Aug-24 20:33S 36°50' E 174°49'3 2.5
2015-Aug-24 19:32S 36°51' E 174°46'6 0.5
2015-Aug-24 06:17S 36°51' E 174°54'6 3.7
2015-Aug-24 04:33S 36°51' E 174°46'6 0.9
2015-Aug-23 21:07S 36°51' E 174°54'4 7.1
2015-Aug-23 20:33S 36°50' E 174°49'2 2.3
2015-Aug-23 19:33S 36°50' E 174°46'  
2015-Aug-21 06:18S 36°51' E 174°54'7 3.8
2015-Aug-21 04:33S 36°51' E 174°46'6 0.3
2015-Aug-20 06:15S 36°51' E 174°54'6 3.7
2015-Aug-20 04:33S 36°51' E 174°46'6 2.6
2015-Aug-20 02:15S 36°51' E 174°53'0 0.2
2015-Aug-20 00:15S 36°51' E 174°54'0 0.1
2015-Aug-19 21:05S 36°51' E 174°53'5 3.6
2015-Aug-19 19:33S 36°50' E 174°47'6 0.4
2015-Aug-19 06:16S 36°51' E 174°53'6 3.5
2015-Aug-19 04:34S 36°51' E 174°46'6 2.6
2015-Aug-19 02:15S 36°51' E 174°54'0 0.2
2015-Aug-19 00:18S 36°51' E 174°54'0 0.0
2015-Aug-18 21:08S 36°51' E 174°54'3 5.0
2015-Aug-18 20:33S 36°50' E 174°50'3 3.2
2015-Aug-18 19:33S 36°50' E 174°46'6 0.5
2015-Aug-18 06:17S 36°51' E 174°54'6 3.7
2015-Aug-18 04:33S 36°51' E 174°46'6 2.7
2015-Aug-18 02:16S 36°51' E 174°54'0 0.1
2015-Aug-18 00:18S 36°51' E 174°54'  

Dump ship's entire track history